Time;durP1;ratioP1;P1;durP2;ratioP2;P2;SDS_P1;SDS_P2;PMS_P1;PMS_P2;Temp;Humidity;BMP_temperature;BMP_pressure;BME280_temperature;BME280_humidity;BME280_pressure;Samples;Min_cycle;Max_cycle;Signal;HPM_P1;HPM_P2
2024/04/05 00:01:48;;;;;;;18.45;3.10;;;;;;;10.02;100.00;100798.94;5021903;28;20504;-72
2024/04/05 00:04:14;;;;;;;19.33;3.20;;;;;;;10.01;100.00;100800.72;5031061;28;20538;-72
2024/04/05 00:06:39;;;;;;;14.18;3.97;;;;;;;9.99;100.00;100802.66;5026507;28;20046;-72
2024/04/05 00:09:06;;;;;;;16.55;2.97;;;;;;;9.98;100.00;100802.81;5028725;28;20068;-72
2024/04/05 00:11:32;;;;;;;11.57;2.53;;;;;;;9.94;100.00;100808.31;5019031;28;20111;-72
2024/04/05 00:13:57;;;;;;;12.50;2.72;;;;;;;9.97;100.00;100806.38;5027870;28;20491;-72
2024/04/05 00:16:23;;;;;;;17.77;2.88;;;;;;;9.95;100.00;100811.72;5009513;28;20028;-72
2024/04/05 00:18:50;;;;;;;19.83;3.45;;;;;;;9.94;100.00;100804.88;5017879;28;20050;-72
2024/04/05 00:21:16;;;;;;;15.20;3.00;;;;;;;10.06;100.00;100801.09;5021271;28;20048;-72
2024/04/05 00:23:41;;;;;;;20.40;3.15;;;;;;;10.17;100.00;100800.03;5017143;28;20041;-72
2024/04/05 00:26:09;;;;;;;16.85;3.42;;;;;;;10.19;100.00;100792.09;5014745;28;20038;-72
2024/04/05 00:28:36;;;;;;;18.17;3.50;;;;;;;10.16;100.00;100793.22;5015931;28;20131;-73
2024/04/05 00:31:03;;;;;;;18.30;3.15;;;;;;;10.24;100.00;100790.66;5021624;28;20029;-72
2024/04/05 00:33:29;;;;;;;15.00;2.70;;;;;;;10.16;100.00;100792.41;5021657;28;20075;-72
2024/04/05 00:35:56;;;;;;;13.27;3.17;;;;;;;10.19;100.00;100795.50;5012196;28;20044;-71
2024/04/05 00:38:25;;;;;;;18.90;2.78;;;;;;;10.21;100.00;100790.16;5015145;28;20088;-72
2024/04/05 00:40:51;;;;;;;19.73;2.97;;;;;;;10.16;100.00;100788.03;5006047;28;20527;-73
2024/04/05 00:43:17;;;;;;;20.70;3.20;;;;;;;10.10;100.00;100783.47;5020024;28;20534;-72
2024/04/05 00:45:46;;;;;;;14.52;3.20;;;;;;;10.10;100.00;100778.28;5034030;28;20033;-72
2024/04/05 00:48:14;;;;;;;26.25;2.95;;;;;;;10.16;100.00;100777.66;5020709;28;20041;-72
2024/04/05 00:50:40;;;;;;;18.17;3.13;;;;;;;10.17;100.00;100781.06;5027437;28;20500;-72
2024/04/05 00:53:09;;;;;;;17.48;2.78;;;;;;;10.13;100.00;100773.63;5029074;28;20053;-72
2024/04/05 00:55:37;;;;;;;11.35;2.58;;;;;;;10.05;100.00;100776.16;5028647;28;20024;-72
2024/04/05 00:58:04;;;;;;;15.93;2.60;;;;;;;10.03;100.00;100772.91;5039109;28;20036;-72
2024/04/05 01:00:31;;;;;;;15.15;4.03;;;;;;;10.02;100.00;100766.09;5020422;28;20045;-72
2024/04/05 01:02:57;;;;;;;22.13;3.15;;;;;;;10.14;100.00;100754.50;5025944;28;20049;-72
2024/04/05 01:05:23;;;;;;;18.50;3.13;;;;;;;10.13;100.00;100742.53;5025258;28;20034;-72
2024/04/05 01:07:50;;;;;;;26.83;3.50;;;;;;;10.19;100.00;100740.25;5019406;28;20462;-72
2024/04/05 01:10:15;;;;;;;14.43;3.08;;;;;;;10.28;100.00;100721.19;5008747;28;20106;-72
2024/04/05 01:12:41;;;;;;;15.68;3.22;;;;;;;10.21;100.00;100744.34;5029545;28;20171;-73
2024/04/05 01:15:06;;;;;;;17.05;3.00;;;;;;;10.13;100.00;100752.06;5025429;28;20021;-72
2024/04/05 01:17:35;;;;;;;18.02;4.07;;;;;;;10.13;100.00;100760.66;5032028;28;20376;-72
2024/04/05 01:20:03;;;;;;;18.80;2.38;;;;;;;10.07;100.00;100769.03;5028425;28;20037;-72
2024/04/05 01:22:40;;;;;;;12.48;3.22;;;;;;;10.03;100.00;100772.09;5023751;28;20037;-73
2024/04/05 01:25:06;;;;;;;11.50;2.67;;;;;;;10.01;100.00;100766.25;5024456;28;20033;-72
2024/04/05 01:27:31;;;;;;;10.38;2.70;;;;;;;9.99;100.00;100763.00;5028371;28;20504;-72
2024/04/05 01:29:57;;;;;;;13.43;2.42;;;;;;;10.07;100.00;100768.22;5025978;28;20049;-72
2024/04/05 01:32:22;;;;;;;16.85;3.08;;;;;;;10.15;100.00;100765.66;5030018;28;20030;-72
2024/04/05 01:34:48;;;;;;;16.88;2.80;;;;;;;10.10;100.00;100767.94;5028917;28;20033;-72
2024/04/05 01:37:13;;;;;;;11.93;2.25;;;;;;;10.06;100.00;100777.78;5031021;28;20041;-72
2024/04/05 01:39:39;;;;;;;13.38;2.67;;;;;;;10.04;100.00;100771.94;5030384;28;20033;-72
2024/04/05 01:42:04;;;;;;;19.63;2.97;;;;;;;10.07;100.00;100769.03;5030720;28;20045;-72
2024/04/05 01:44:29;;;;;;;14.15;2.85;;;;;;;10.12;100.00;100771.19;5031014;28;20048;-72
2024/04/05 01:46:56;;;;;;;20.38;3.25;;;;;;;10.35;100.00;100757.72;5022662;28;20038;-72
2024/04/05 01:49:22;;;;;;;15.00;2.75;;;;;;;10.33;100.00;100755.28;5031886;28;20098;-72
2024/04/05 01:51:47;;;;;;;10.85;3.03;;;;;;;10.32;100.00;100753.63;5011322;28;20484;-72
2024/04/05 01:54:13;;;;;;;14.63;2.67;;;;;;;10.25;100.00;100758.59;5023735;28;20409;-72
2024/04/05 01:56:38;;;;;;;16.05;3.15;;;;;;;10.29;100.00;100743.56;5027176;28;20408;-72
2024/04/05 01:59:03;;;;;;;16.73;2.60;;;;;;;10.24;100.00;100736.25;5028108;28;20033;-72
2024/04/05 02:01:29;;;;;;;18.25;2.70;;;;;;;10.20;100.00;100731.53;5023584;28;20030;-72
2024/04/05 02:03:54;;;;;;;20.48;3.97;;;;;;;10.28;100.00;100728.97;5024374;28;20394;-72
2024/04/05 02:06:20;;;;;;;19.77;2.85;;;;;;;10.24;100.00;100743.22;5029612;28;20048;-72
2024/04/05 02:08:45;;;;;;;20.20;4.15;;;;;;;10.19;100.00;100741.09;5022850;28;20447;-72
2024/04/05 02:11:11;;;;;;;22.70;3.03;;;;;;;10.16;100.00;100749.16;5026622;28;20127;-72
2024/04/05 02:13:39;;;;;;;18.27;2.53;;;;;;;10.12;100.00;100753.84;5031942;28;20042;-72
2024/04/05 02:16:05;;;;;;;20.27;3.85;;;;;;;10.12;100.00;100747.84;5031606;28;20036;-72
2024/04/05 02:18:30;;;;;;;13.85;3.63;;;;;;;10.11;100.00;100743.63;5025115;28;20042;-72
2024/04/05 02:20:57;;;;;;;16.67;3.00;;;;;;;10.07;100.00;100752.69;5010679;28;20051;-72
2024/04/05 02:23:22;;;;;;;15.07;2.92;;;;;;;10.03;100.00;100751.38;5025182;28;20437;-72
2024/04/05 02:25:49;;;;;;;15.55;2.63;;;;;;;10.00;100.00;100752.50;5029430;28;20032;-72
2024/04/05 02:28:14;;;;;;;16.55;3.30;;;;;;;10.06;100.00;100754.47;5028178;28;20045;-72
2024/04/05 02:30:40;;;;;;;10.73;2.53;;;;;;;10.00;100.00;100747.31;5041248;28;20041;-72
2024/04/05 02:33:05;;;;;;;12.45;2.25;;;;;;;9.97;100.00;100746.81;5026887;28;20037;-72
2024/04/05 02:35:31;;;;;;;17.23;2.85;;;;;;;9.94;100.00;100751.34;5026943;28;20040;-72
2024/04/05 02:37:57;;;;;;;23.33;3.90;;;;;;;9.91;100.00;100756.81;5023832;28;20038;-72
2024/04/05 02:40:22;;;;;;;16.27;3.28;;;;;;;9.87;100.00;100752.91;5030453;28;20083;-72
2024/04/05 02:42:48;;;;;;;14.63;2.70;;;;;;;9.84;100.00;100762.75;5015694;28;20519;-72
2024/04/05 02:45:13;;;;;;;17.00;3.42;;;;;;;9.82;100.00;100760.31;5010829;28;20501;-72
2024/04/05 02:47:39;;;;;;;9.68;2.67;;;;;;;9.79;100.00;100765.78;5030590;28;20026;-72
2024/04/05 02:50:05;;;;;;;15.50;2.45;;;;;;;9.77;100.00;100761.72;5011473;28;20520;-72
2024/04/05 02:52:30;;;;;;;12.93;2.95;;;;;;;9.74;100.00;100765.44;5035002;28;20437;-72
2024/04/05 02:54:55;;;;;;;13.98;2.58;;;;;;;9.71;100.00;100758.78;5029673;28;20021;-72
2024/04/05 02:57:21;;;;;;;19.25;2.97;;;;;;;9.70;100.00;100761.50;5030493;28;20056;-72
2024/04/05 02:59:47;;;;;;;11.77;2.70;;;;;;;9.67;100.00;100761.81;5020710;28;20045;-72
2024/04/05 03:02:13;;;;;;;15.57;3.05;;;;;;;9.64;100.00;100775.06;5022514;28;20036;-72
2024/04/05 03:04:38;;;;;;;11.05;2.80;;;;;;;9.63;100.00;100773.44;5023657;28;20045;-72
2024/04/05 03:07:04;;;;;;;8.68;2.00;;;;;;;9.60;100.00;100768.56;5027977;28;20045;-72
2024/04/05 03:09:30;;;;;;;18.35;2.90;;;;;;;9.57;100.00;100769.69;5023159;28;20033;-72
2024/04/05 03:11:56;;;;;;;16.02;2.78;;;;;;;9.54;100.00;100770.78;5031196;28;20033;-72
2024/04/05 03:14:21;;;;;;;19.83;3.00;;;;;;;9.54;100.00;100769.97;5026802;28;20076;-72
2024/04/05 03:16:47;;;;;;;11.68;3.13;;;;;;;9.53;100.00;100770.91;5024082;28;20616;-72
2024/04/05 03:19:12;;;;;;;10.05;2.60;;;;;;;9.52;100.00;100772.69;5027366;28;20053;-72
2024/04/05 03:21:38;;;;;;;15.73;3.08;;;;;;;9.52;100.00;100759.75;5026502;28;22070;-72
2024/04/05 03:24:04;;;;;;;11.88;2.55;;;;;;;9.50;100.00;100759.09;5020283;28;20041;-72
2024/04/05 03:26:29;;;;;;;14.77;2.80;;;;;;;9.48;100.00;100753.25;5029821;28;20036;-72
2024/04/05 03:28:54;;;;;;;13.88;2.58;;;;;;;9.49;100.00;100769.59;5022685;28;20042;-72
2024/04/05 03:31:20;;;;;;;14.07;3.15;;;;;;;9.61;100.00;100763.25;5028885;28;20052;-72
2024/04/05 03:33:45;;;;;;;15.85;2.20;;;;;;;9.60;100.00;100771.94;5022633;28;20435;-72
2024/04/05 03:36:11;;;;;;;15.30;3.60;;;;;;;9.58;100.00;100773.06;5026213;28;20036;-72
2024/04/05 03:38:36;;;;;;;9.95;2.50;;;;;;;9.57;100.00;100774.88;5028397;28;20033;-72
2024/04/05 03:41:02;;;;;;;10.52;2.42;;;;;;;9.58;100.00;100773.06;5024103;28;20041;-72
2024/04/05 03:43:28;;;;;;;15.90;2.90;;;;;;;9.69;100.00;100773.66;5031659;28;20053;-72
2024/04/05 03:45:53;;;;;;;18.10;3.28;;;;;;;9.74;100.00;100770.63;5030048;28;20024;-72
2024/04/05 03:48:19;;;;;;;14.50;3.47;;;;;;;9.87;100.00;100768.44;5021476;28;20057;-72
2024/04/05 03:50:44;;;;;;;25.67;3.47;;;;;;;10.10;100.00;100762.75;5023678;28;20021;-72
2024/04/05 03:53:09;;;;;;;23.70;4.30;;;;;;;10.13;100.00;100765.00;5013997;28;20047;-72
2024/04/05 03:55:35;;;;;;;15.13;3.40;;;;;;;10.22;100.00;100765.88;5010565;28;20087;-72
2024/04/05 03:58:00;;;;;;;23.75;3.50;;;;;;;10.23;100.00;100767.53;5023377;28;20032;-72
2024/04/05 04:00:26;;;;;;;16.98;3.15;;;;;;;10.23;100.00;100767.53;5019141;28;20238;-72
2024/04/05 04:02:52;;;;;;;23.55;3.42;;;;;;;10.34;100.00;100772.47;5025810;28;20037;-72
2024/04/05 04:05:18;;;;;;;13.70;2.75;;;;;;;10.49;100.00;100759.69;5023020;28;20038;-72
2024/04/05 04:07:44;;;;;;;23.20;4.28;;;;;;;10.54;100.00;100767.84;5025583;28;20045;-72
2024/04/05 04:10:10;;;;;;;16.77;3.15;;;;;;;10.42;100.00;100759.53;5030247;28;20088;-72
2024/04/05 04:12:35;;;;;;;13.00;3.38;;;;;;;10.57;100.00;100748.53;5007870;28;20073;-72
2024/04/05 04:15:01;;;;;;;21.08;3.38;;;;;;;10.60;100.00;100756.03;5028006;28;20496;-72
2024/04/05 04:17:27;;;;;;;21.20;3.20;;;;;;;10.60;100.00;100749.03;5024907;28;20025;-72
2024/04/05 04:19:52;;;;;;;20.83;3.85;;;;;;;10.67;100.00;100741.47;5022280;28;20041;-72
2024/04/05 04:22:19;;;;;;;25.00;3.70;;;;;;;10.64;100.00;100752.13;5026900;28;20040;-73
2024/04/05 04:24:44;;;;;;;14.57;3.97;;;;;;;10.57;100.00;100748.53;5026169;28;20555;-72
2024/04/05 04:27:11;;;;;;;13.93;3.33;;;;;;;10.52;100.00;100743.84;5027893;28;20029;-72
2024/04/05 04:29:37;;;;;;;21.48;3.65;;;;;;;10.70;100.00;100729.00;5033361;28;20042;-72
2024/04/05 04:32:02;;;;;;;17.50;3.38;;;;;;;10.65;100.00;100722.66;5026883;28;20091;-72
2024/04/05 04:34:28;;;;;;;23.58;3.33;;;;;;;10.62;100.00;100708.22;5035209;28;20107;-73
2024/04/05 04:36:53;;;;;;;18.50;3.65;;;;;;;10.57;100.00;100710.47;5025120;28;20045;-72
2024/04/05 04:39:18;;;;;;;17.00;3.10;;;;;;;10.58;100.00;100713.88;5030110;28;20052;-72
2024/04/05 04:41:44;;;;;;;18.92;3.92;;;;;;;10.60;100.00;100728.31;5031438;28;20041;-72
2024/04/05 04:44:09;;;;;;;22.55;3.60;;;;;;;10.59;100.00;100728.50;5023564;28;20037;-72
2024/04/05 04:46:35;;;;;;;22.45;4.05;;;;;;;10.60;100.00;100741.25;5042098;28;20042;-72
2024/04/05 04:49:01;;;;;;;25.27;4.03;;;;;;;10.57;100.00;100749.38;5026684;28;20026;-72
2024/04/05 04:51:26;;;;;;;27.90;4.35;;;;;;;10.67;100.00;100731.09;5033798;28;20030;-72
2024/04/05 04:53:54;;;;;;;16.85;3.15;;;;;;;10.67;100.00;100731.91;5036116;28;20048;-72
2024/04/05 04:56:19;;;;;;;20.42;3.58;;;;;;;10.78;100.00;100714.44;5033037;28;20483;-72
2024/04/05 04:58:44;;;;;;;23.85;4.53;;;;;;;10.73;100.00;100698.53;5030021;28;20094;-73
2024/04/05 05:01:10;;;;;;;23.17;4.45;;;;;;;10.73;100.00;100675.19;5034638;28;20037;-73
2024/04/05 05:03:36;;;;;;;18.55;4.63;;;;;;;10.64;100.00;100661.38;5034022;28;20038;-73
2024/04/05 05:06:01;;;;;;;29.10;3.80;;;;;;;10.63;100.00;100663.16;5031519;28;20033;-72
2024/04/05 05:08:28;;;;;;;17.08;3.03;;;;;;;10.59;100.00;100661.88;5029477;28;20088;-72
2024/04/05 05:10:54;;;;;;;17.33;3.58;;;;;;;10.52;100.00;100663.47;5043386;28;20041;-72
2024/04/05 05:13:19;;;;;;;22.02;3.60;;;;;;;10.62;100.00;100674.50;5028767;28;20121;-72
2024/04/05 05:15:44;;;;;;;18.02;3.55;;;;;;;10.59;100.00;100687.81;5032278;28;20443;-72
2024/04/05 05:18:11;;;;;;;14.20;3.58;;;;;;;10.57;100.00;100692.34;5046205;28;20046;-72
2024/04/05 05:20:45;;;;;;;20.00;4.20;;;;;;;10.58;100.00;100703.50;5033868;28;20096;-72
2024/04/05 05:23:10;;;;;;;18.70;5.10;;;;;;;10.60;100.00;100715.34;5029080;28;20059;-72
2024/04/05 05:25:37;;;;;;;17.17;3.63;;;;;;;10.50;100.00;100727.63;5027335;28;20034;-72
2024/04/05 05:28:04;;;;;;;17.70;3.78;;;;;;;10.48;100.00;100722.59;5023186;28;20614;-72
2024/04/05 05:30:29;;;;;;;27.25;4.13;;;;;;;10.60;100.00;100728.31;5031507;28;20069;-72
2024/04/05 05:32:56;;;;;;;22.33;4.10;;;;;;;10.69;100.00;100736.94;5027244;28;20478;-72
2024/04/05 05:35:23;;;;;;;21.02;3.67;;;;;;;10.64;100.00;100742.59;5046476;28;20025;-72
2024/04/05 05:37:48;;;;;;;22.20;3.97;;;;;;;10.74;100.00;100752.00;5030772;28;20053;-72
2024/04/05 05:40:14;;;;;;;16.70;3.50;;;;;;;10.77;100.00;100743.91;5023596;28;20096;-72
2024/04/05 05:42:40;;;;;;;18.02;3.55;;;;;;;10.79;100.00;100735.00;5024078;28;20850;-72
2024/04/05 05:45:05;;;;;;;21.30;4.13;;;;;;;10.85;100.00;100725.75;5027721;28;20084;-72
2024/04/05 05:47:31;;;;;;;26.63;3.88;;;;;;;10.84;100.00;100716.38;5032779;28;20040;-72
2024/04/05 05:49:56;;;;;;;21.80;3.60;;;;;;;10.78;100.00;100714.44;5031533;28;20037;-72
2024/04/05 05:52:21;;;;;;;18.08;3.53;;;;;;;10.82;100.00;100690.59;5020791;28;20592;-71
2024/04/05 05:54:47;;;;;;;18.83;4.10;;;;;;;10.86;100.00;100691.09;5028025;28;20377;-72
2024/04/05 05:57:12;;;;;;;25.35;4.10;;;;;;;10.87;100.00;100688.34;5026585;28;20064;-71
2024/04/05 05:59:38;;;;;;;26.80;4.85;;;;;;;10.89;100.00;100690.78;5033315;28;20029;-72
2024/04/05 06:02:06;;;;;;;23.10;4.60;;;;;;;11.03;100.00;100676.34;5032589;28;20464;-72
2024/04/05 06:04:32;;;;;;;20.50;4.00;;;;;;;10.98;100.00;100669.06;5028615;28;20041;-72
2024/04/05 06:06:57;;;;;;;22.42;4.97;;;;;;;11.03;100.00;100661.56;5017319;28;20697;-72
2024/04/05 06:09:23;;;;;;;27.08;5.60;;;;;;;11.15;100.00;100658.66;5027491;28;20496;-71
2024/04/05 06:11:50;;;;;;;22.33;5.32;;;;;;;11.17;100.00;100661.91;5026932;28;20041;-72
2024/04/05 06:14:16;;;;;;;20.65;5.13;;;;;;;11.21;100.00;100656.25;5031349;28;20037;-72
2024/04/05 06:16:42;;;;;;;17.88;5.32;;;;;;;11.29;100.00;100651.03;5031264;28;20028;-72
2024/04/05 06:19:07;;;;;;;23.02;6.05;;;;;;;11.41;100.00;100643.69;5026378;28;20527;-72
2024/04/05 06:21:32;;;;;;;20.75;6.05;;;;;;;11.39;100.00;100642.25;5033597;28;20037;-72
2024/04/05 06:23:59;;;;;;;21.95;6.63;;;;;;;11.48;100.00;100633.47;5023917;28;20111;-72
2024/04/05 06:26:27;;;;;;;20.27;5.10;;;;;;;11.53;100.00;100631.22;5028214;28;20501;-72
2024/04/05 06:28:53;;;;;;;20.45;5.45;;;;;;;11.55;100.00;100615.47;5030054;28;21925;-72
2024/04/05 06:31:18;;;;;;;20.55;5.40;;;;;;;11.52;100.00;100614.00;5030203;28;20037;-71
2024/04/05 06:33:44;;;;;;;17.25;5.30;;;;;;;11.55;100.00;100624.06;5021291;28;20088;-72
2024/04/05 06:36:10;;;;;;;15.32;5.75;;;;;;;11.59;100.00;100625.34;5031440;28;20021;-72
2024/04/05 06:38:36;;;;;;;23.17;6.18;;;;;;;11.63;100.00;100621.44;5031116;28;20041;-72
2024/04/05 06:41:02;;;;;;;18.23;5.35;;;;;;;11.73;100.00;100610.84;5028980;28;20033;-71
2024/04/05 06:43:29;;;;;;;15.82;5.22;;;;;;;11.68;100.00;100608.75;5013304;28;20120;-72
2024/04/05 06:45:59;;;;;;;19.38;5.38;;;;;;;11.78;100.00;100605.16;5028856;28;20044;-72
2024/04/05 06:48:26;;;;;;;19.05;5.03;;;;;;;11.78;100.00;100600.75;5021552;28;20409;-72
2024/04/05 06:50:52;;;;;;;20.10;4.78;;;;;;;11.86;100.00;100602.50;5030165;28;20025;-72
2024/04/05 06:53:24;;;;;;;19.30;4.50;;;;;;;11.89;100.00;100599.59;5028224;28;20049;-71
2024/04/05 06:55:50;;;;;;;16.20;4.38;;;;;;;11.95;100.00;100592.94;5033350;28;20021;-71
2024/04/05 06:58:17;;;;;;;14.70;4.80;;;;;;;12.05;100.00;100589.16;5030645;28;20445;-72
2024/04/05 07:00:43;;;;;;;20.45;4.90;;;;;;;12.14;100.00;100591.69;5021410;28;20022;-72
2024/04/05 07:03:08;;;;;;;19.35;5.45;;;;;;;12.15;100.00;100588.94;5023920;28;20029;-71
2024/04/05 07:05:34;;;;;;;24.80;5.43;;;;;;;12.29;100.00;100591.78;5030310;28;21771;-71
2024/04/05 07:07:59;;;;;;;14.35;3.95;;;;;;;12.33;100.00;100585.25;5047067;28;20540;-71
2024/04/05 07:10:25;;;;;;;15.93;4.25;;;;;;;12.38;100.00;100588.94;5028383;28;20496;-72
2024/04/05 07:12:54;;;;;;;15.10;4.22;;;;;;;12.32;100.00;100584.44;5031285;28;20439;-72
2024/04/05 07:15:20;;;;;;;14.98;4.35;;;;;;;12.34;100.00;100584.25;5045213;28;20037;-71
2024/04/05 07:17:51;;;;;;;18.05;4.65;;;;;;;12.42;100.00;100585.00;5020012;28;20416;-71
2024/04/05 07:20:21;;;;;;;16.10;4.00;;;;;;;12.52;100.00;100586.56;5014196;28;20162;-73
2024/04/05 07:22:47;;;;;;;14.43;3.78;;;;;;;12.56;100.00;100583.44;5030247;28;20045;-72
2024/04/05 07:25:13;;;;;;;16.05;3.85;;;;;;;12.66;100.00;100581.44;5029080;28;20044;-72
2024/04/05 07:27:41;;;;;;;23.27;4.80;;;;;;;12.80;100.00;100576.44;5023357;28;20606;-71
2024/04/05 07:30:07;;;;;;;13.32;3.50;;;;;;;12.95;100.00;100574.66;5031707;28;20033;-72
2024/04/05 07:32:34;;;;;;;12.70;4.35;;;;;;;12.91;100.00;100570.81;5025842;28;20092;-72
2024/04/05 07:35:00;;;;;;;18.23;4.65;;;;;;;12.88;100.00;100563.34;5023566;28;20421;-71
2024/04/05 07:37:26;;;;;;;17.63;3.63;;;;;;;12.94;100.00;100569.63;5030544;28;20103;-72
2024/04/05 07:39:54;;;;;;;11.73;3.53;;;;;;;12.97;100.00;100551.88;5028484;28;20057;-72
2024/04/05 07:42:19;;;;;;;16.33;3.60;;;;;;;12.94;100.00;100552.25;5028248;28;20508;-72
2024/04/05 07:44:46;;;;;;;15.13;3.42;;;;;;;13.08;100.00;100558.44;5032481;28;20036;-72
2024/04/05 07:47:12;;;;;;;11.85;2.60;;;;;;;13.02;100.00;100561.78;5027304;28;20480;-72
2024/04/05 07:49:38;;;;;;;11.82;2.67;;;;;;;13.01;100.00;100552.34;5026714;28;20051;-74
2024/04/05 07:52:03;;;;;;;13.60;2.75;;;;;;;13.10;100.00;100553.06;5043150;28;20079;-72
2024/04/05 07:54:29;;;;;;;14.63;2.90;;;;;;;13.10;100.00;100555.69;5032612;28;20577;-72
2024/04/05 07:56:55;;;;;;;13.27;2.72;;;;;;;13.10;100.00;100556.47;5026872;28;20516;-72
2024/04/05 07:59:20;;;;;;;11.80;2.92;;;;;;;13.19;100.00;100550.19;5029303;28;20038;-73
2024/04/05 08:01:46;;;;;;;11.32;2.80;;;;;;;13.13;100.00;100565.72;5014409;28;20028;-72
2024/04/05 08:04:11;;;;;;;12.95;3.20;;;;;;;13.08;100.00;100555.84;5025736;28;20040;-71
2024/04/05 08:06:37;;;;;;;20.17;3.20;;;;;;;13.12;100.00;100548.50;5023888;28;20087;-75
2024/04/05 08:09:02;;;;;;;11.82;3.25;;;;;;;13.12;100.00;100551.91;5027902;28;20134;-72
2024/04/05 08:11:28;;;;;;;11.73;2.20;;;;;;;13.11;100.00;100544.25;5025973;28;20052;-72
2024/04/05 08:13:53;;;;;;;10.65;2.85;;;;;;;13.07;100.00;100541.22;5027315;28;20035;-72
2024/04/05 08:16:19;;;;;;;11.15;2.30;;;;;;;13.18;100.00;100543.38;5027568;28;20036;-73
2024/04/05 08:18:44;;;;;;;13.70;2.20;;;;;;;13.25;100.00;100522.63;5022502;28;20045;-73
2024/04/05 08:21:10;;;;;;;9.45;2.33;;;;;;;13.34;100.00;100524.19;5030164;28;20037;-73
2024/04/05 08:23:35;;;;;;;9.95;1.70;;;;;;;13.33;100.00;100524.38;5030279;28;20049;-73
2024/04/05 08:26:01;;;;;;;8.27;1.73;;;;;;;13.39;100.00;100521.88;5029294;28;20030;-73
2024/04/05 08:28:27;;;;;;;9.32;2.40;;;;;;;13.39;100.00;100516.66;5024547;28;20036;-73
2024/04/05 08:30:53;;;;;;;5.65;2.08;;;;;;;13.40;100.00;100514.84;5029993;28;20025;-74
2024/04/05 08:33:19;;;;;;;8.32;1.77;;;;;;;13.45;100.00;100504.72;5017738;28;20131;-74
2024/04/05 08:35:55;;;;;;;11.50;2.10;;;;;;;13.46;100.00;100493.28;5029671;28;20108;-73
2024/04/05 08:38:20;;;;;;;10.88;1.95;;;;;;;13.49;100.00;100500.75;5006823;28;20399;-74
2024/04/05 08:40:47;;;;;;;8.52;1.90;;;;;;;13.49;100.00;100487.72;5028725;28;20021;-73
2024/04/05 08:43:16;;;;;;;7.65;1.60;;;;;;;13.53;100.00;100482.97;5031493;28;20025;-73
2024/04/05 08:45:44;;;;;;;9.10;2.03;;;;;;;13.60;100.00;100487.25;5032547;28;20034;-73
2024/04/05 08:48:11;;;;;;;6.13;1.50;;;;;;;13.64;100.00;100490.31;5024902;28;20045;-73
2024/04/05 08:50:37;;;;;;;8.23;1.77;;;;;;;13.65;100.00;100472.88;5026122;28;20029;-74
2024/04/05 08:53:04;;;;;;;11.00;1.90;;;;;;;13.65;100.00;100470.25;5026441;28;20105;-73
2024/04/05 08:55:30;;;;;;;7.88;2.22;;;;;;;13.73;100.00;100470.13;5030410;28;20037;-74
2024/04/05 08:57:58;;;;;;;8.70;1.77;;;;;;;13.71;100.00;100466.91;5035544;28;20101;-74
2024/04/05 09:00:24;;;;;;;9.13;1.83;;;;;;;13.83;100.00;100468.84;5029333;28;20063;-74
2024/04/05 09:02:52;;;;;;;6.45;1.60;;;;;;;13.92;100.00;100466.09;5029535;28;20057;-74
2024/04/05 09:05:17;;;;;;;7.10;1.70;;;;;;;13.98;100.00;100452.34;5009824;28;20041;-73
2024/04/05 09:07:43;;;;;;;10.80;2.30;;;;;;;14.07;100.00;100456.47;5025344;28;20038;-74
2024/04/05 09:10:16;;;;;;;8.60;2.05;;;;;;;14.13;100.00;100447.88;5025598;28;20042;-75
2024/04/05 09:12:50;;;;;;;5.30;1.60;;;;;;;14.20;100.00;100450.53;5029761;28;20036;-73
2024/04/05 09:15:21;;;;;;;4.25;1.05;;;;;;;14.30;100.00;100442.41;5028183;28;20037;-74
2024/04/05 09:17:49;;;;;;;7.03;1.35;;;;;;;14.38;100.00;100434.44;5028968;28;20029;-74
2024/04/05 09:20:24;;;;;;;5.75;1.42;;;;;;;14.54;100.00;100413.28;5033251;28;20045;-74
2024/04/05 09:22:58;;;;;;;4.18;1.52;;;;;;;14.63;100.00;100431.41;5040260;28;20749;-73
2024/04/05 09:25:23;;;;;;;6.05;0.90;;;;;;;14.57;100.00;100436.38;5027486;28;20088;-74
2024/04/05 09:27:50;;;;;;;9.57;1.35;;;;;;;14.48;100.00;100434.09;5029833;28;20481;-74
2024/04/05 09:30:15;;;;;;;8.25;1.77;;;;;;;14.45;100.00;100430.06;5041131;28;20049;-73
2024/04/05 09:32:41;;;;;;;5.28;1.80;;;;;;;14.32;100.00;100441.22;5020779;28;20056;-74
2024/04/05 09:35:09;;;;;;;9.63;1.80;;;;;;;14.31;100.00;100434.38;5022337;28;20532;-73
2024/04/05 09:37:35;;;;;;;10.43;1.50;;;;;;;14.36;100.00;100429.41;5012913;28;20026;-74
2024/04/05 09:40:04;;;;;;;6.50;1.58;;;;;;;14.39;100.00;100436.03;5046960;28;20041;-74
2024/04/05 09:42:30;;;;;;;6.07;1.60;;;;;;;14.41;100.00;100440.06;5026220;28;20069;-73
2024/04/05 09:44:58;;;;;;;9.15;1.98;;;;;;;14.41;100.00;100434.84;5034862;28;20404;-74
2024/04/05 09:47:25;;;;;;;6.95;1.50;;;;;;;14.41;100.00;100442.69;5042621;28;20043;-74
2024/04/05 09:49:51;;;;;;;5.10;1.17;;;;;;;14.36;100.00;100452.88;5026256;28;20041;-74
2024/04/05 09:52:24;;;;;;;7.07;1.33;;;;;;;14.33;100.00;100468.88;5025895;28;20037;-74
2024/04/05 09:54:55;;;;;;;4.93;1.15;;;;;;;14.43;100.00;100481.63;5019953;28;20042;-74
2024/04/05 09:57:21;;;;;;;4.75;1.50;;;;;;;14.51;100.00;100485.91;5029387;28;20034;-73
2024/04/05 09:59:48;;;;;;;8.07;1.95;;;;;;;14.48;100.00;100497.50;5034143;28;20112;-73
2024/04/05 10:02:17;;;;;;;5.85;0.90;;;;;;;14.51;100.00;100497.13;5028555;28;20080;-74
2024/04/05 10:04:46;;;;;;;4.97;1.17;;;;;;;14.55;100.00;100494.94;5028964;28;20040;-74
2024/04/05 10:07:12;;;;;;;7.30;1.50;;;;;;;14.70;100.00;100493.06;5037806;28;20573;-74
2024/04/05 10:09:38;;;;;;;6.38;1.40;;;;;;;14.73;100.00;100473.63;5026480;28;20037;-74
2024/04/05 10:12:14;;;;;;;6.60;1.50;;;;;;;14.75;100.00;100492.53;5027296;28;20083;-73
2024/04/05 10:14:43;;;;;;;3.42;1.27;;;;;;;14.77;100.00;100495.75;5027661;28;20721;-74
2024/04/05 10:17:11;;;;;;;7.57;1.65;;;;;;;14.67;100.00;100495.25;5031161;28;20025;-74
2024/04/05 10:19:38;;;;;;;7.40;2.03;;;;;;;14.63;100.00;100491.41;5028302;28;20561;-74
2024/04/05 10:22:09;;;;;;;4.80;1.35;;;;;;;14.70;100.00;100487.84;5036479;28;20036;-74
2024/04/05 10:24:37;;;;;;;7.28;1.30;;;;;;;14.69;100.00;100488.03;5031027;28;20038;-74
2024/04/05 10:27:11;;;;;;;7.45;1.38;;;;;;;14.94;100.00;100476.16;5029104;28;20049;-74
2024/04/05 10:29:36;;;;;;;4.55;1.45;;;;;;;15.10;100.00;100466.41;5027157;28;20041;-73
2024/04/05 10:32:06;;;;;;;6.25;1.27;;;;;;;15.24;100.00;100452.41;5029600;28;20091;-73
2024/04/05 10:34:32;;;;;;;7.47;1.38;;;;;;;15.25;100.00;100461.84;5028049;28;20041;-74
2024/04/05 10:36:58;;;;;;;9.30;1.77;;;;;;;15.38;100.00;100467.13;5023775;28;20032;-73
2024/04/05 10:39:24;;;;;;;4.90;1.58;;;;;;;15.42;100.00;100478.00;5030168;28;20126;-74
2024/04/05 10:41:50;;;;;;;9.77;1.52;;;;;;;15.46;100.00;100468.75;5031093;28;20041;-74
2024/04/05 10:44:18;;;;;;;6.78;1.58;;;;;;;15.60;100.00;100450.53;5034093;28;20064;-73
2024/04/05 10:46:50;;;;;;;6.03;1.27;;;;;;;15.77;100.00;100444.75;5028539;28;20028;-73
2024/04/05 10:49:17;;;;;;;3.78;1.20;;;;;;;15.68;100.00;100469.44;5029410;28;20060;-74
2024/04/05 10:51:43;;;;;;;4.38;1.20;;;;;;;15.57;100.00;100465.56;5026532;28;20079;-74
2024/04/05 10:54:13;;;;;;;8.95;1.75;;;;;;;15.73;98.18;100471.47;5029417;28;20033;-73
2024/04/05 10:56:40;;;;;;;9.35;1.50;;;;;;;15.76;92.03;100471.91;5029990;28;20510;-74
2024/04/05 10:59:09;;;;;;;7.15;1.25;;;;;;;15.85;93.77;100466.47;5027539;28;20045;-73
2024/04/05 11:01:35;;;;;;;7.97;1.63;;;;;;;15.78;93.22;100456.00;5029977;28;20084;-73
2024/04/05 11:04:03;;;;;;;5.25;1.20;;;;;;;15.78;91.89;100437.69;5029459;28;20037;-74
2024/04/05 11:06:30;;;;;;;4.78;1.60;;;;;;;16.06;89.91;100441.97;5026333;28;20118;-74
2024/04/05 11:08:56;;;;;;;4.18;1.27;;;;;;;15.88;92.30;100456.44;5039468;28;20400;-74